sensor_id;sensor_type;location;lat;lon;timestamp;temperature;humidity
55331;DHT22;58851;42.984;20.336;2023-04-01T00:00:12;307.80;128.00
55331;DHT22;58851;42.984;20.336;2023-04-01T00:02:38;307.90;128.00
55331;DHT22;58851;42.984;20.336;2023-04-01T00:05:04;307.90;128.00
55331;DHT22;58851;42.984;20.336;2023-04-01T00:07:31;308.00;128.00
55331;DHT22;58851;42.984;20.336;2023-04-01T00:09:57;307.90;128.00
55331;DHT22;58851;42.984;20.336;2023-04-01T00:12:22;307.90;128.00
55331;DHT22;58851;42.984;20.336;2023-04-01T00:14:50;307.80;128.00
55331;DHT22;58851;42.984;20.336;2023-04-01T00:17:16;307.70;128.00
55331;DHT22;58851;42.984;20.336;2023-04-01T00:19:42;307.80;128.00
55331;DHT22;58851;42.984;20.336;2023-04-01T00:22:08;307.70;128.00
55331;DHT22;58851;42.984;20.336;2023-04-01T00:24:37;307.70;128.00
55331;DHT22;58851;42.984;20.336;2023-04-01T00:27:03;307.70;128.00
55331;DHT22;58851;42.984;20.336;2023-04-01T00:29:29;307.70;128.00
55331;DHT22;58851;42.984;20.336;2023-04-01T00:31:57;307.70;128.00
55331;DHT22;58851;42.984;20.336;2023-04-01T00:34:23;307.70;128.00
55331;DHT22;58851;42.984;20.336;2023-04-01T00:36:52;307.60;128.00
55331;DHT22;58851;42.984;20.336;2023-04-01T00:39:19;307.60;128.00
55331;DHT22;58851;42.984;20.336;2023-04-01T00:41:45;307.60;128.00
55331;DHT22;58851;42.984;20.336;2023-04-01T00:44:22;307.60;128.00
55331;DHT22;58851;42.984;20.336;2023-04-01T00:46:49;307.70;128.00
55331;DHT22;58851;42.984;20.336;2023-04-01T00:49:17;307.60;128.00
55331;DHT22;58851;42.984;20.336;2023-04-01T00:51:45;307.50;128.00
55331;DHT22;58851;42.984;20.336;2023-04-01T00:54:14;307.50;128.00
55331;DHT22;58851;42.984;20.336;2023-04-01T00:56:57;307.50;128.00
55331;DHT22;58851;42.984;20.336;2023-04-01T00:59:27;307.50;128.00
55331;DHT22;58851;42.984;20.336;2023-04-01T01:01:54;307.50;128.00
55331;DHT22;58851;42.984;20.336;2023-04-01T01:04:26;307.50;128.00
55331;DHT22;58851;42.984;20.336;2023-04-01T01:23:06;307.50;128.00
55331;DHT22;58851;42.984;20.336;2023-04-01T01:36:33;307.40;128.00
55331;DHT22;58851;42.984;20.336;2023-04-01T01:39:02;307.40;128.00
55331;DHT22;58851;42.984;20.336;2023-04-01T01:41:30;307.40;128.00
55331;DHT22;58851;42.984;20.336;2023-04-01T01:43:58;307.30;128.00
55331;DHT22;58851;42.984;20.336;2023-04-01T01:46:26;307.40;128.00
55331;DHT22;58851;42.984;20.336;2023-04-01T01:48:53;307.40;128.00
55331;DHT22;58851;42.984;20.336;2023-04-01T01:51:21;307.40;128.00
55331;DHT22;58851;42.984;20.336;2023-04-01T01:53:47;307.40;128.00
55331;DHT22;58851;42.984;20.336;2023-04-01T01:56:13;307.40;128.00
55331;DHT22;58851;42.984;20.336;2023-04-01T01:58:52;307.40;128.00
55331;DHT22;58851;42.984;20.336;2023-04-01T02:01:24;307.20;128.00
55331;DHT22;58851;42.984;20.336;2023-04-01T02:03:52;282.50;6528.00
55331;DHT22;58851;42.984;20.336;2023-04-01T02:06:23;282.50;6528.00
55331;DHT22;58851;42.984;20.336;2023-04-01T02:09:06;282.50;6528.00
55331;DHT22;58851;42.984;20.336;2023-04-01T02:11:46;282.50;6528.00
55331;DHT22;58851;42.984;20.336;2023-04-01T02:14:26;282.50;6528.00
55331;DHT22;58851;42.984;20.336;2023-04-01T02:19:29;282.40;6528.00
55331;DHT22;58851;42.984;20.336;2023-04-01T02:21:57;282.30;6528.00
55331;DHT22;58851;42.984;20.336;2023-04-01T02:24:26;282.30;6528.00
55331;DHT22;58851;42.984;20.336;2023-04-01T02:26:53;282.20;6528.00
55331;DHT22;58851;42.984;20.336;2023-04-01T02:29:23;282.30;6528.00
55331;DHT22;58851;42.984;20.336;2023-04-01T02:31:51;282.30;6528.00
55331;DHT22;58851;42.984;20.336;2023-04-01T02:34:18;282.30;6528.00
55331;DHT22;58851;42.984;20.336;2023-04-01T02:36:44;282.30;6528.00
55331;DHT22;58851;42.984;20.336;2023-04-01T02:39:11;282.20;6528.00
55331;DHT22;58851;42.984;20.336;2023-04-01T02:41:41;282.30;6528.00
55331;DHT22;58851;42.984;20.336;2023-04-01T02:44:08;282.30;6528.00
55331;DHT22;58851;42.984;20.336;2023-04-01T02:46:34;282.30;6528.00
55331;DHT22;58851;42.984;20.336;2023-04-01T02:48:59;282.30;6528.00
55331;DHT22;58851;42.984;20.336;2023-04-01T02:51:25;282.30;6528.00
55331;DHT22;58851;42.984;20.336;2023-04-01T02:53:51;282.30;6528.00
55331;DHT22;58851;42.984;20.336;2023-04-01T02:56:17;282.20;6528.00
55331;DHT22;58851;42.984;20.336;2023-04-01T02:58:45;282.20;6528.00
55331;DHT22;58851;42.984;20.336;2023-04-01T03:01:11;282.20;6528.00
55331;DHT22;58851;42.984;20.336;2023-04-01T03:03:36;282.30;6528.00
55331;DHT22;58851;42.984;20.336;2023-04-01T03:06:10;282.20;6528.00
55331;DHT22;58851;42.984;20.336;2023-04-01T03:08:37;282.30;6528.00
55331;DHT22;58851;42.984;20.336;2023-04-01T03:11:03;282.20;6528.00
55331;DHT22;58851;42.984;20.336;2023-04-01T03:13:30;282.30;6528.00
55331;DHT22;58851;42.984;20.336;2023-04-01T03:15:55;282.30;6528.00
55331;DHT22;58851;42.984;20.336;2023-04-01T03:18:21;282.30;6528.00
55331;DHT22;58851;42.984;20.336;2023-04-01T03:20:47;282.30;6528.00
55331;DHT22;58851;42.984;20.336;2023-04-01T03:23:13;282.30;6528.00
55331;DHT22;58851;42.984;20.336;2023-04-01T03:25:38;282.30;6528.00
55331;DHT22;58851;42.984;20.336;2023-04-01T03:28:04;282.30;6528.00
55331;DHT22;58851;42.984;20.336;2023-04-01T03:30:30;282.30;6528.00
55331;DHT22;58851;42.984;20.336;2023-04-01T03:32:57;282.30;6528.00
55331;DHT22;58851;42.984;20.336;2023-04-01T03:35:24;282.20;6528.00
55331;DHT22;58851;42.984;20.336;2023-04-01T03:37:51;282.30;6528.00
55331;DHT22;58851;42.984;20.336;2023-04-01T03:40:17;282.30;6528.00
55331;DHT22;58851;42.984;20.336;2023-04-01T03:42:43;282.30;6528.00
55331;DHT22;58851;42.984;20.336;2023-04-01T03:45:09;282.20;6528.00
55331;DHT22;58851;42.984;20.336;2023-04-01T03:47:37;282.10;6528.00
55331;DHT22;58851;42.984;20.336;2023-04-01T03:50:03;282.00;6528.00
55331;DHT22;58851;42.984;20.336;2023-04-01T03:52:29;281.80;6528.00
55331;DHT22;58851;42.984;20.336;2023-04-01T03:54:55;281.90;6528.00
55331;DHT22;58851;42.984;20.336;2023-04-01T03:57:21;281.90;6528.00
55331;DHT22;58851;42.984;20.336;2023-04-01T03:59:47;281.80;6528.00
55331;DHT22;58851;42.984;20.336;2023-04-01T04:02:13;281.90;6528.00
55331;DHT22;58851;42.984;20.336;2023-04-01T04:04:38;281.70;6528.00
55331;DHT22;58851;42.984;20.336;2023-04-01T04:07:04;281.60;6528.00
55331;DHT22;58851;42.984;20.336;2023-04-01T04:09:31;256.80;6502.40
55331;DHT22;58851;42.984;20.336;2023-04-01T04:11:57;256.90;512.00
55331;DHT22;58851;42.984;20.336;2023-04-01T04:14:23;281.60;6528.00
55331;DHT22;58851;42.984;20.336;2023-04-01T04:16:49;281.60;435.20
55331;DHT22;58851;42.984;20.336;2023-04-01T04:19:15;256.90;6502.40
55331;DHT22;58851;42.984;20.336;2023-04-01T04:21:41;281.60;6528.00
55331;DHT22;58851;42.984;20.336;2023-04-01T04:24:07;281.60;6528.00
55331;DHT22;58851;42.984;20.336;2023-04-01T04:26:33;281.60;486.40
55331;DHT22;58851;42.984;20.336;2023-04-01T04:29:01;281.60;358.40
55331;DHT22;58851;42.984;20.336;2023-04-01T04:31:27;281.60;6528.00
55331;DHT22;58851;42.984;20.336;2023-04-01T04:33:53;281.60;460.80
55331;DHT22;58851;42.984;20.336;2023-04-01T04:36:20;281.70;460.80
55331;DHT22;58851;42.984;20.336;2023-04-01T04:38:46;281.70;435.20
55331;DHT22;58851;42.984;20.336;2023-04-01T04:41:16;281.80;409.60
55331;DHT22;58851;42.984;20.336;2023-04-01T04:43:52;281.80;128.00
55331;DHT22;58851;42.984;20.336;2023-04-01T04:46:19;281.80;128.00
55331;DHT22;58851;42.984;20.336;2023-04-01T04:48:45;281.80;128.00
55331;DHT22;58851;42.984;20.336;2023-04-01T04:51:16;281.80;435.20
55331;DHT22;58851;42.984;20.336;2023-04-01T04:53:42;281.70;435.20
55331;DHT22;58851;42.984;20.336;2023-04-01T04:56:08;281.60;6528.00
55331;DHT22;58851;42.984;20.336;2023-04-01T04:58:34;281.60;6528.00
55331;DHT22;58851;42.984;20.336;2023-04-01T05:01:06;281.70;6528.00
55331;DHT22;58851;42.984;20.336;2023-04-01T05:03:32;281.80;460.80
55331;DHT22;58851;42.984;20.336;2023-04-01T05:05:57;281.70;6528.00
55331;DHT22;58851;42.984;20.336;2023-04-01T05:08:23;281.60;6528.00
55331;DHT22;58851;42.984;20.336;2023-04-01T05:10:49;281.90;6528.00
55331;DHT22;58851;42.984;20.336;2023-04-01T05:13:14;282.10;435.20
55331;DHT22;58851;42.984;20.336;2023-04-01T05:15:40;282.10;460.80
55331;DHT22;58851;42.984;20.336;2023-04-01T05:18:06;282.30;332.80
55331;DHT22;58851;42.984;20.336;2023-04-01T05:20:32;282.50;204.80
55331;DHT22;58851;42.984;20.336;2023-04-01T05:22:59;307.20;128.00
55331;DHT22;58851;42.984;20.336;2023-04-01T05:25:25;307.30;128.00
55331;DHT22;58851;42.984;20.336;2023-04-01T05:27:51;307.30;128.00
55331;DHT22;58851;42.984;20.336;2023-04-01T05:30:17;307.30;128.00
55331;DHT22;58851;42.984;20.336;2023-04-01T05:32:43;307.30;128.00
55331;DHT22;58851;42.984;20.336;2023-04-01T05:35:09;307.30;128.00
55331;DHT22;58851;42.984;20.336;2023-04-01T05:37:35;307.40;128.00
55331;DHT22;58851;42.984;20.336;2023-04-01T05:40:02;307.50;128.00
55331;DHT22;58851;42.984;20.336;2023-04-01T05:42:27;307.50;128.00
55331;DHT22;58851;42.984;20.336;2023-04-01T05:44:53;307.60;128.00
55331;DHT22;58851;42.984;20.336;2023-04-01T05:47:19;307.60;128.00
55331;DHT22;58851;42.984;20.336;2023-04-01T05:49:45;307.40;128.00
55331;DHT22;58851;42.984;20.336;2023-04-01T05:52:10;307.30;128.00
55331;DHT22;58851;42.984;20.336;2023-04-01T05:54:36;282.50;6528.00
55331;DHT22;58851;42.984;20.336;2023-04-01T05:57:02;282.50;6528.00
55331;DHT22;58851;42.984;20.336;2023-04-01T05:59:28;307.20;358.40
55331;DHT22;58851;42.984;20.336;2023-04-01T06:01:54;307.20;128.00
55331;DHT22;58851;42.984;20.336;2023-04-01T06:04:19;282.50;6528.00
55331;DHT22;58851;42.984;20.336;2023-04-01T06:06:45;282.30;6528.00
55331;DHT22;58851;42.984;20.336;2023-04-01T06:09:19;282.30;6528.00
55331;DHT22;58851;42.984;20.336;2023-04-01T06:20:09;281.60;6528.00
55331;DHT22;58851;42.984;20.336;2023-04-01T06:42:13;282.50;2278.40
55331;DHT22;58851;42.984;20.336;2023-04-01T06:44:49;307.20;2304.00
55331;DHT22;58851;42.984;20.336;2023-04-01T06:47:50;307.40;2304.00
55331;DHT22;58851;42.984;20.336;2023-04-01T06:51:25;307.50;2304.00
55331;DHT22;58851;42.984;20.336;2023-04-01T06:53:28;307.60;2304.00
55331;DHT22;58851;42.984;20.336;2023-04-01T06:56:04;307.50;2304.00
55331;DHT22;58851;42.984;20.336;2023-04-01T06:59:05;307.50;2304.00
55331;DHT22;58851;42.984;20.336;2023-04-01T07:01:44;307.50;2304.00
55331;DHT22;58851;42.984;20.336;2023-04-01T07:04:20;307.40;2252.80
55331;DHT22;58851;42.984;20.336;2023-04-01T07:09:22;307.20;2304.00
55331;DHT22;58851;42.984;20.336;2023-04-01T07:11:50;282.40;2278.40
55331;DHT22;58851;42.984;20.336;2023-04-01T07:14:30;282.40;2278.40
55331;DHT22;58851;42.984;20.336;2023-04-01T07:17:19;282.30;2278.40
55331;DHT22;58851;42.984;20.336;2023-04-01T07:19:58;282.30;2278.40
55331;DHT22;58851;42.984;20.336;2023-04-01T07:22:40;282.30;2278.40
55331;DHT22;58851;42.984;20.336;2023-04-01T07:27:43;282.40;2278.40
55331;DHT22;58851;42.984;20.336;2023-04-01T07:30:17;282.50;2278.40
55331;DHT22;58851;42.984;20.336;2023-04-01T07:42:14;307.30;1945.60
55331;DHT22;58851;42.984;20.336;2023-04-01T07:48:14;307.30;2304.00
55331;DHT22;58851;42.984;20.336;2023-04-01T07:51:07;282.50;2278.40
55331;DHT22;58851;42.984;20.336;2023-04-01T07:59:02;282.40;2278.40
55331;DHT22;58851;42.984;20.336;2023-04-01T08:21:08;281.70;2278.40
55331;DHT22;58851;42.984;20.336;2023-04-01T08:23:43;256.80;2252.80
55331;DHT22;58851;42.984;20.336;2023-04-01T08:29:08;256.10;2252.80
55331;DHT22;58851;42.984;20.336;2023-04-01T08:32:00;256.20;2252.80
55331;DHT22;58851;42.984;20.336;2023-04-01T08:34:34;231.30;2252.80
55331;DHT22;58851;42.984;20.336;2023-04-01T08:37:05;256.10;2252.80
55331;DHT22;58851;42.984;20.336;2023-04-01T08:39:44;256.20;2252.80
55331;DHT22;58851;42.984;20.336;2023-04-01T08:48:28;256.90;2252.80
55331;DHT22;58851;42.984;20.336;2023-04-01T08:56:22;281.80;2278.40
55331;DHT22;58851;42.984;20.336;2023-04-01T09:15:42;281.60;2278.40
55331;DHT22;58851;42.984;20.336;2023-04-01T09:18:21;281.60;2278.40
55331;DHT22;58851;42.984;20.336;2023-04-01T09:32:01;256.90;2252.80
55331;DHT22;58851;42.984;20.336;2023-04-01T09:43:16;256.00;2252.80
55331;DHT22;58851;42.984;20.336;2023-04-01T09:57:28;281.90;6528.00
55331;DHT22;58851;42.984;20.336;2023-04-01T10:00:15;281.80;6528.00
55331;DHT22;58851;42.984;20.336;2023-04-01T10:11:01;256.90;6502.40
55331;DHT22;58851;42.984;20.336;2023-04-01T10:13:56;281.80;6528.00
55331;DHT22;58851;42.984;20.336;2023-04-01T10:44:54;307.20;128.00
55331;DHT22;58851;42.984;20.336;2023-04-01T10:50:24;307.90;128.00
55331;DHT22;58851;42.984;20.336;2023-04-01T10:53:15;332.80;128.00
55331;DHT22;58851;42.984;20.336;2023-04-01T11:10:24;333.10;128.00
55331;DHT22;58851;42.984;20.336;2023-04-01T11:21:43;333.60;128.00
55331;DHT22;58851;42.984;20.336;2023-04-01T11:30:01;358.80;128.00
55331;DHT22;58851;42.984;20.336;2023-04-01T11:38:25;359.10;128.00
55331;DHT22;58851;42.984;20.336;2023-04-01T11:44:17;359.20;128.00
55331;DHT22;58851;42.984;20.336;2023-04-01T11:55:01;384.20;128.00
55331;DHT22;58851;42.984;20.336;2023-04-01T12:00:45;384.50;128.00
55331;DHT22;58851;42.984;20.336;2023-04-01T12:11:33;409.70;128.00
55331;DHT22;58851;42.984;20.336;2023-04-01T12:17:04;410.50;128.00
55331;DHT22;58851;42.984;20.336;2023-04-01T12:22:28;410.10;128.00
55331;DHT22;58851;42.984;20.336;2023-04-01T12:38:44;384.50;128.00
55331;DHT22;58851;42.984;20.336;2023-04-01T12:46:52;333.50;128.00
55331;DHT22;58851;42.984;20.336;2023-04-01T12:49:55;308.10;2304.00
55331;DHT22;58851;42.984;20.336;2023-04-01T12:58:10;308.10;128.00
55331;DHT22;58851;42.984;20.336;2023-04-01T13:09:13;333.60;128.00
55331;DHT22;58851;42.984;20.336;2023-04-01T13:14:50;333.00;128.00
55331;DHT22;58851;42.984;20.336;2023-04-01T13:28:23;358.80;128.00
55331;DHT22;58851;42.984;20.336;2023-04-01T13:43:22;333.40;128.00
55331;DHT22;58851;42.984;20.336;2023-04-01T13:46:16;333.00;128.00
55331;DHT22;58851;42.984;20.336;2023-04-01T13:49:17;308.00;128.00
55331;DHT22;58851;42.984;20.336;2023-04-01T13:58:12;333.00;128.00
55331;DHT22;58851;42.984;20.336;2023-04-01T14:00:54;358.70;128.00
55331;DHT22;58851;42.984;20.336;2023-04-01T14:12:26;307.70;128.00
55331;DHT22;58851;42.984;20.336;2023-04-01T14:15:21;307.40;128.00
55331;DHT22;58851;42.984;20.336;2023-04-01T14:20:37;333.70;640.00
55331;DHT22;58851;42.984;20.336;2023-04-01T14:34:41;358.40;128.00
55331;DHT22;58851;42.984;20.336;2023-04-01T14:48:30;333.30;128.00
55331;DHT22;58851;42.984;20.336;2023-04-01T14:51:47;358.50;128.00
55331;DHT22;58851;42.984;20.336;2023-04-01T14:56:41;332.90;128.00
55331;DHT22;58851;42.984;20.336;2023-04-01T15:02:01;333.10;128.00
55331;DHT22;58851;42.984;20.336;2023-04-01T15:08:04;410.00;460.80
55331;DHT22;58851;42.984;20.336;2023-04-01T15:21:23;486.40;128.00
55331;DHT22;58851;42.984;20.336;2023-04-01T15:24:17;486.50;128.00
55331;DHT22;58851;42.984;20.336;2023-04-01T15:32:46;384.70;128.00
55331;DHT22;58851;42.984;20.336;2023-04-01T15:38:36;359.10;128.00
55331;DHT22;58851;42.984;20.336;2023-04-01T15:41:15;358.60;128.00
55331;DHT22;58851;42.984;20.336;2023-04-01T15:43:44;333.70;204.80
55331;DHT22;58851;42.984;20.336;2023-04-01T15:52:18;333.70;384.00
55331;DHT22;58851;42.984;20.336;2023-04-01T16:00:41;333.00;128.00
55331;DHT22;58851;42.984;20.336;2023-04-01T16:03:14;332.80;128.00
55331;DHT22;58851;42.984;20.336;2023-04-01T16:12:00;307.90;128.00
55331;DHT22;58851;42.984;20.336;2023-04-01T16:15:13;307.90;128.00
55331;DHT22;58851;42.984;20.336;2023-04-01T16:26:20;308.00;128.00
55331;DHT22;58851;42.984;20.336;2023-04-01T16:31:49;308.00;128.00
55331;DHT22;58851;42.984;20.336;2023-04-01T16:34:38;332.80;128.00
55331;DHT22;58851;42.984;20.336;2023-04-01T16:37:08;333.00;128.00
55331;DHT22;58851;42.984;20.336;2023-04-01T16:40:11;333.00;128.00
55331;DHT22;58851;42.984;20.336;2023-04-01T16:43:21;308.00;128.00
55331;DHT22;58851;42.984;20.336;2023-04-01T16:48:45;307.40;128.00
55331;DHT22;58851;42.984;20.336;2023-04-01T16:51:16;307.40;128.00
55331;DHT22;58851;42.984;20.336;2023-04-01T17:01:55;282.20;6528.00
55331;DHT22;58851;42.984;20.336;2023-04-01T17:21:07;281.60;6528.00
55331;DHT22;58851;42.984;20.336;2023-04-01T17:29:31;256.60;6502.40
55331;DHT22;58851;42.984;20.336;2023-04-01T17:38:23;256.40;6502.40
55331;DHT22;58851;42.984;20.336;2023-04-01T17:51:42;256.40;6502.40
55331;DHT22;58851;42.984;20.336;2023-04-01T18:00:03;256.10;256.00
55331;DHT22;58851;42.984;20.336;2023-04-01T18:02:42;231.30;409.60
55331;DHT22;58851;42.984;20.336;2023-04-01T18:05:26;231.30;6502.40
55331;DHT22;58851;42.984;20.336;2023-04-01T18:08:21;231.20;435.20
55331;DHT22;58851;42.984;20.336;2023-04-01T18:11:00;231.10;6502.40
55331;DHT22;58851;42.984;20.336;2023-04-01T18:25:42;230.70;6502.40
55331;DHT22;58851;42.984;20.336;2023-04-01T18:31:09;230.50;6502.40
55331;DHT22;58851;42.984;20.336;2023-04-01T18:38:57;205.60;6502.40
55331;DHT22;58851;42.984;20.336;2023-04-01T18:41:56;205.50;6502.40
55331;DHT22;58851;42.984;20.336;2023-04-01T18:44:27;205.30;6502.40
55331;DHT22;58851;42.984;20.336;2023-04-01T18:50:07;205.00;6502.40
55331;DHT22;58851;42.984;20.336;2023-04-01T18:52:43;204.90;6502.40
55331;DHT22;58851;42.984;20.336;2023-04-01T18:55:32;205.00;6502.40
55331;DHT22;58851;42.984;20.336;2023-04-01T18:58:20;204.90;6502.40
55331;DHT22;58851;42.984;20.336;2023-04-01T19:01:10;204.80;6502.40
55331;DHT22;58851;42.984;20.336;2023-04-01T19:03:57;204.80;6502.40
55331;DHT22;58851;42.984;20.336;2023-04-01T19:06:28;180.10;6502.40
55331;DHT22;58851;42.984;20.336;2023-04-01T19:09:15;179.90;6502.40
55331;DHT22;58851;42.984;20.336;2023-04-01T19:11:58;179.90;6502.40
55331;DHT22;58851;42.984;20.336;2023-04-01T19:20:24;180.00;6502.40
55331;DHT22;58851;42.984;20.336;2023-04-01T19:23:07;179.80;6502.40
55331;DHT22;58851;42.984;20.336;2023-04-01T19:25:42;179.80;6502.40
55331;DHT22;58851;42.984;20.336;2023-04-01T19:36:58;179.80;6502.40
55331;DHT22;58851;42.984;20.336;2023-04-01T19:56:23;179.70;6502.40
55331;DHT22;58851;42.984;20.336;2023-04-01T20:01:45;179.20;6502.40
55331;DHT22;58851;42.984;20.336;2023-04-01T20:04:27;154.40;128.00
55331;DHT22;58851;42.984;20.336;2023-04-01T20:07:19;154.20;6502.40
55331;DHT22;58851;42.984;20.336;2023-04-01T20:12:42;153.90;6502.40
55331;DHT22;58851;42.984;20.336;2023-04-01T20:15:22;154.00;6502.40
55331;DHT22;58851;42.984;20.336;2023-04-01T20:17:52;154.10;6502.40
55331;DHT22;58851;42.984;20.336;2023-04-01T20:20:28;154.10;6502.40
55331;DHT22;58851;42.984;20.336;2023-04-01T20:25:55;154.20;6502.40
55331;DHT22;58851;42.984;20.336;2023-04-01T20:29:22;154.30;128.00
55331;DHT22;58851;42.984;20.336;2023-04-01T20:31:35;154.30;128.00
55331;DHT22;58851;42.984;20.336;2023-04-01T20:48:14;153.80;6502.40
55331;DHT22;58851;42.984;20.336;2023-04-01T20:51:06;153.80;6502.40
55331;DHT22;58851;42.984;20.336;2023-04-01T20:54:42;153.60;6502.40
55331;DHT22;58851;42.984;20.336;2023-04-01T20:57:12;153.60;6502.40
55331;DHT22;58851;42.984;20.336;2023-04-01T21:02:30;128.70;6502.40
55331;DHT22;58851;42.984;20.336;2023-04-01T21:11:12;128.70;6502.40
55331;DHT22;58851;42.984;20.336;2023-04-01T21:29:51;128.80;6502.40
55331;DHT22;58851;42.984;20.336;2023-04-01T21:32:46;128.80;6502.40
55331;DHT22;58851;42.984;20.336;2023-04-01T21:38:28;128.80;6502.40
55331;DHT22;58851;42.984;20.336;2023-04-01T22:00:11;128.70;6502.40
55331;DHT22;58851;42.984;20.336;2023-04-01T22:02:45;128.60;6502.40
55331;DHT22;58851;42.984;20.336;2023-04-01T22:05:39;128.60;6502.40
55331;DHT22;58851;42.984;20.336;2023-04-01T22:13:59;128.30;6502.40
55331;DHT22;58851;42.984;20.336;2023-04-01T22:16:42;128.00;6502.40
55331;DHT22;58851;42.984;20.336;2023-04-01T22:25:07;128.10;6502.40
55331;DHT22;58851;42.984;20.336;2023-04-01T22:27:53;128.10;6502.40
55331;DHT22;58851;42.984;20.336;2023-04-01T22:30:28;128.10;6502.40
55331;DHT22;58851;42.984;20.336;2023-04-01T22:38:56;128.00;6502.40
55331;DHT22;58851;42.984;20.336;2023-04-01T22:41:30;128.00;6502.40
55331;DHT22;58851;42.984;20.336;2023-04-01T22:43:58;103.30;6476.80
55331;DHT22;58851;42.984;20.336;2023-04-01T22:46:55;103.30;6476.80
55331;DHT22;58851;42.984;20.336;2023-04-01T22:49:42;103.30;6476.80
55331;DHT22;58851;42.984;20.336;2023-04-01T22:54:53;103.20;6476.80
55331;DHT22;58851;42.984;20.336;2023-04-01T23:00:20;103.10;6476.80
55331;DHT22;58851;42.984;20.336;2023-04-01T23:05:18;103.10;6476.80
55331;DHT22;58851;42.984;20.336;2023-04-01T23:11:07;103.00;6476.80
55331;DHT22;58851;42.984;20.336;2023-04-01T23:13:38;102.90;6476.80
55331;DHT22;58851;42.984;20.336;2023-04-01T23:16:05;102.90;6476.80
55331;DHT22;58851;42.984;20.336;2023-04-01T23:21:40;102.80;6476.80
55331;DHT22;58851;42.984;20.336;2023-04-01T23:27:21;102.80;6476.80
55331;DHT22;58851;42.984;20.336;2023-04-01T23:29:48;102.80;6476.80
55331;DHT22;58851;42.984;20.336;2023-04-01T23:32:18;102.80;6476.80
55331;DHT22;58851;42.984;20.336;2023-04-01T23:34:56;102.80;6476.80
55331;DHT22;58851;42.984;20.336;2023-04-01T23:37:24;102.80;6476.80
55331;DHT22;58851;42.984;20.336;2023-04-01T23:39:52;102.80;6476.80
55331;DHT22;58851;42.984;20.336;2023-04-01T23:42:20;102.70;6476.80
55331;DHT22;58851;42.984;20.336;2023-04-01T23:44:49;102.70;6476.80
55331;DHT22;58851;42.984;20.336;2023-04-01T23:47:30;102.70;6476.80
55331;DHT22;58851;42.984;20.336;2023-04-01T23:49:59;102.70;6476.80
55331;DHT22;58851;42.984;20.336;2023-04-01T23:52:40;102.60;6476.80
55331;DHT22;58851;42.984;20.336;2023-04-01T23:55:32;102.60;6476.80
